createdAt,value
2019-06-01T00:00:23.536Z,14.90
2019-06-01T00:02:56.662Z,14.90
2019-06-01T00:05:22.505Z,14.90
2019-06-01T00:07:52.278Z,14.80
2019-06-01T00:10:21.129Z,14.80
2019-06-01T00:12:49.682Z,14.80
2019-06-01T00:15:18.427Z,14.70
2019-06-01T00:17:47.986Z,14.70
2019-06-01T00:20:16.861Z,14.60
2019-06-01T00:22:45.524Z,14.60
2019-06-01T00:25:15.443Z,14.60
2019-06-01T00:27:44.685Z,14.50
2019-06-01T00:30:26.615Z,14.50
2019-06-01T00:32:45.781Z,14.50
2019-06-01T00:35:14.409Z,14.40
2019-06-01T00:37:43.442Z,14.50
2019-06-01T00:40:12.709Z,14.50
2019-06-01T00:42:42.056Z,14.40
2019-06-01T00:45:13.350Z,14.50
2019-06-01T00:47:42.656Z,14.40
2019-06-01T00:50:12.406Z,14.40
2019-06-01T00:52:41.289Z,14.40
2019-06-01T00:55:11.212Z,14.40
2019-06-01T00:57:39.740Z,14.40
2019-06-01T01:00:09.004Z,14.40
2019-06-01T01:02:37.477Z,14.40
2019-06-01T01:05:22.158Z,14.30
2019-06-01T01:07:51.584Z,14.30
2019-06-01T01:10:22.042Z,14.30
2019-06-01T01:13:04.765Z,14.30
2019-06-01T01:15:34.441Z,14.20
2019-06-01T01:18:06.963Z,14.20
2019-06-01T01:20:37.054Z,14.20
2019-06-01T01:23:07.968Z,14.20
2019-06-01T01:25:37.055Z,14.20
2019-06-01T01:28:06.606Z,14.20
2019-06-01T01:30:35.246Z,14.10
2019-06-01T01:33:03.892Z,14.10
2019-06-01T01:35:32.370Z,14.00
2019-06-01T01:38:00.953Z,14.00
2019-06-01T01:40:29.633Z,14.00
2019-06-01T01:42:58.950Z,14.00
2019-06-01T01:45:28.111Z,14.00
2019-06-01T01:47:57.345Z,14.00
2019-06-01T01:50:27.485Z,14.00
2019-06-01T01:52:57.012Z,13.90
2019-06-01T01:55:25.928Z,13.90
2019-06-01T01:57:57.517Z,13.90
2019-06-01T02:00:47.419Z,13.80
2019-06-01T02:03:16.048Z,13.80
2019-06-01T02:05:44.584Z,13.80
2019-06-01T02:08:13.146Z,13.80
2019-06-01T02:10:45.105Z,13.80
2019-06-01T02:13:15.396Z,13.80
2019-06-01T02:15:43.970Z,13.80
2019-06-01T02:18:12.460Z,13.70
2019-06-01T02:20:42.711Z,13.80
2019-06-01T02:23:11.329Z,13.80
2019-06-01T02:25:40.016Z,13.80
2019-06-01T02:28:08.493Z,13.80
2019-06-01T02:30:38.540Z,13.70
2019-06-01T02:33:08.673Z,13.70
2019-06-01T02:35:38.484Z,13.80
2019-06-01T02:38:06.999Z,13.80
2019-06-01T02:40:36.516Z,13.80
2019-06-01T02:43:07.297Z,13.80
2019-06-01T02:45:37.862Z,13.70
2019-06-01T02:48:09.424Z,13.70
2019-06-01T02:50:39.445Z,13.70
2019-06-01T02:53:09.551Z,13.70
2019-06-01T02:55:38.103Z,13.70
2019-06-01T02:58:07.733Z,13.70
2019-06-01T03:00:48.107Z,13.70
2019-06-01T03:03:18.697Z,13.70
2019-06-01T03:05:48.093Z,13.70
2019-06-01T03:08:21.122Z,13.70
2019-06-01T03:10:51.842Z,13.60
2019-06-01T03:13:22.636Z,13.70
2019-06-01T03:15:54.167Z,13.70
2019-06-01T03:18:27.126Z,13.60
2019-06-01T03:20:57.803Z,13.60
2019-06-01T03:23:31.026Z,13.60
2019-06-01T03:26:04.338Z,13.60
2019-06-01T03:28:37.186Z,13.70
2019-06-01T03:31:07.757Z,13.60
2019-06-01T03:33:35.952Z,13.60
2019-06-01T03:36:04.796Z,13.60
2019-06-01T03:38:33.390Z,13.60
2019-06-01T03:41:06.075Z,13.60
2019-06-01T03:43:35.752Z,13.60
2019-06-01T03:46:04.638Z,13.60
2019-06-01T03:48:36.130Z,13.60
2019-06-01T03:51:05.605Z,13.60
2019-06-01T03:53:35.680Z,13.50
2019-06-01T03:56:04.963Z,13.50
2019-06-01T03:58:36.346Z,13.50
2019-06-01T04:01:05.216Z,13.50
2019-06-01T04:03:34.420Z,13.50
2019-06-01T04:06:03.324Z,13.50
2019-06-01T04:08:32.385Z,13.50
2019-06-01T04:11:01.413Z,13.50
2019-06-01T04:13:32.244Z,13.50
2019-06-01T04:16:01.757Z,13.50
2019-06-01T04:18:31.303Z,13.50
2019-06-01T04:21:06.004Z,13.50
2019-06-01T04:23:36.552Z,13.50
2019-06-01T04:26:06.346Z,13.50
2019-06-01T04:28:34.885Z,13.50
2019-06-01T04:31:04.690Z,13.50
2019-06-01T04:33:33.271Z,13.60
2019-06-01T04:36:04.893Z,13.60
2019-06-01T04:38:33.413Z,13.70
2019-06-01T04:41:03.837Z,13.70
2019-06-01T04:43:33.544Z,13.80
2019-06-01T04:46:04.014Z,13.90
2019-06-01T04:48:38.379Z,13.90
2019-06-01T04:51:11.800Z,14.00
2019-06-01T04:53:40.003Z,14.00
2019-06-01T04:56:11.471Z,14.10
2019-06-01T04:58:40.047Z,14.20
2019-06-01T05:01:11.158Z,14.30
2019-06-01T05:03:39.656Z,14.30
2019-06-01T05:06:09.266Z,14.40
2019-06-01T05:08:38.118Z,14.50
2019-06-01T05:11:08.283Z,14.50
2019-06-01T05:13:36.892Z,14.60
2019-06-01T05:16:08.299Z,14.70
2019-06-01T05:18:38.408Z,14.70
2019-06-01T05:21:08.414Z,14.80
2019-06-01T05:23:37.393Z,14.90
2019-06-01T05:26:06.785Z,15.00
2019-06-01T05:28:35.482Z,15.10
2019-06-01T05:31:04.098Z,15.20
2019-06-01T05:33:37.322Z,15.30
2019-06-01T05:36:02.977Z,15.40
2019-06-01T05:38:31.454Z,15.50
2019-06-01T05:41:00.089Z,15.60
2019-06-01T05:43:28.796Z,15.70
2019-06-01T05:45:59.806Z,15.90
2019-06-01T05:48:30.657Z,16.10
2019-06-01T05:50:59.636Z,16.20
2019-06-01T05:53:30.314Z,16.30
2019-06-01T05:55:58.536Z,16.50
2019-06-01T05:58:29.273Z,16.70
2019-06-01T06:00:57.247Z,16.90
2019-06-01T06:03:39.604Z,17.00
2019-06-01T06:05:56.181Z,17.10
2019-06-01T06:08:24.652Z,17.20
2019-06-01T06:10:53.215Z,17.40
2019-06-01T06:13:21.870Z,17.70
2019-06-01T06:15:53.037Z,18.00
2019-06-01T06:18:21.971Z,18.60
2019-06-01T06:20:54.139Z,18.90
2019-06-01T06:23:23.761Z,19.30
2019-06-01T06:25:52.409Z,19.70
2019-06-01T06:28:20.987Z,20.00
2019-06-01T06:30:49.462Z,20.30
2019-06-01T06:33:17.925Z,20.50
2019-06-01T06:35:46.451Z,20.80
2019-06-01T06:38:17.819Z,21.00
2019-06-01T06:40:46.382Z,21.20
2019-06-01T06:43:20.082Z,21.20
2019-06-01T06:45:46.225Z,21.30
2019-06-01T06:48:16.851Z,21.30
2019-06-01T06:50:45.396Z,21.50
2019-06-01T06:53:25.987Z,21.80
2019-06-01T06:55:46.256Z,22.20
2019-06-01T06:58:18.640Z,22.30
2019-06-01T07:00:47.509Z,22.30
2019-06-01T07:03:16.879Z,22.40
2019-06-01T07:05:45.589Z,22.40
2019-06-01T07:08:14.061Z,22.30
2019-06-01T07:10:42.595Z,22.20
2019-06-01T07:13:11.263Z,22.20
2019-06-01T07:15:39.834Z,22.10
2019-06-01T07:18:09.917Z,22.00
2019-06-01T07:20:39.942Z,21.90
2019-06-01T07:23:08.660Z,21.90
2019-06-01T07:25:39.600Z,21.90
2019-06-01T07:28:09.439Z,21.80
2019-06-01T07:30:49.652Z,21.90
2019-06-01T07:33:11.366Z,22.00
2019-06-01T07:35:40.865Z,22.00
2019-06-01T07:38:10.373Z,22.20
2019-06-01T07:40:38.906Z,22.20
2019-06-01T07:43:07.407Z,22.30
2019-06-01T07:45:35.979Z,22.40
2019-06-01T07:48:05.416Z,22.50
2019-06-01T07:50:33.973Z,22.70
2019-06-01T07:53:02.475Z,23.00
2019-06-01T07:55:31.786Z,23.20
2019-06-01T07:58:00.614Z,23.40
2019-06-01T08:00:29.152Z,23.50
2019-06-01T08:03:00.365Z,23.90
2019-06-01T08:05:30.051Z,24.10
2019-06-01T08:07:59.205Z,24.00
2019-06-01T08:10:27.939Z,24.00
2019-06-01T08:12:56.885Z,24.00
2019-06-01T08:15:27.968Z,24.00
2019-06-01T08:17:59.940Z,24.10
2019-06-01T08:20:32.244Z,24.10
2019-06-01T08:23:01.410Z,24.10
2019-06-01T08:25:30.723Z,24.30
2019-06-01T08:27:59.555Z,24.40
2019-06-01T08:30:28.620Z,24.70
2019-06-01T08:32:57.462Z,24.90
2019-06-01T08:35:26.969Z,25.00
2019-06-01T08:37:55.558Z,25.10
2019-06-01T08:40:25.169Z,25.20
2019-06-01T08:42:53.913Z,25.40
2019-06-01T08:45:23.543Z,25.60
2019-06-01T08:47:52.288Z,25.70
2019-06-01T08:50:23.718Z,25.90
2019-06-01T08:55:21.197Z,26.20
2019-06-01T08:57:51.261Z,26.30
2019-06-01T09:00:20.193Z,26.30
2019-06-01T09:02:48.755Z,26.50
2019-06-01T09:05:24.324Z,26.50
2019-06-01T09:07:47.681Z,26.80
2019-06-01T09:10:16.286Z,27.00
2019-06-01T09:12:44.784Z,27.10
2019-06-01T09:15:16.590Z,27.20
2019-06-01T09:17:45.067Z,27.30
2019-06-01T09:20:14.221Z,27.30
2019-06-01T09:22:47.336Z,27.40
2019-06-01T09:25:15.742Z,27.30
2019-06-01T09:27:44.322Z,27.20
2019-06-01T09:30:15.073Z,27.10
2019-06-01T09:32:44.940Z,27.30
2019-06-01T09:35:14.951Z,27.50
2019-06-01T09:37:47.708Z,27.60
2019-06-01T09:40:16.544Z,27.60
2019-06-01T09:42:49.202Z,27.70
2019-06-01T09:45:18.169Z,27.60
2019-06-01T09:47:47.177Z,27.60
2019-06-01T09:50:16.503Z,27.70
2019-06-01T09:52:45.176Z,27.80
2019-06-01T09:55:14.160Z,27.90
2019-06-01T09:57:42.674Z,27.90
2019-06-01T10:00:12.520Z,28.10
2019-06-01T10:02:41.123Z,28.10
2019-06-01T10:05:10.169Z,28.40
2019-06-01T10:07:41.519Z,28.30
2019-06-01T10:10:10.594Z,28.40
2019-06-01T10:12:40.138Z,28.30
2019-06-01T10:15:11.283Z,28.40
2019-06-01T10:17:39.860Z,28.30
2019-06-01T10:20:11.613Z,27.80
2019-06-01T10:22:41.470Z,27.70
2019-06-01T10:25:11.036Z,27.90
2019-06-01T10:27:39.614Z,27.70
2019-06-01T10:30:09.661Z,27.50
2019-06-01T10:32:38.263Z,27.60
2019-06-01T10:35:07.444Z,27.90
2019-06-01T10:37:37.440Z,27.90
2019-06-01T10:40:07.817Z,27.60
2019-06-01T10:42:37.849Z,27.60
2019-06-01T10:45:08.136Z,27.60
2019-06-01T10:47:38.070Z,27.60
2019-06-01T10:50:07.982Z,27.80
2019-06-01T10:52:38.320Z,28.10
2019-06-01T10:55:08.119Z,28.40
2019-06-01T10:57:38.658Z,28.70
2019-06-01T11:00:10.229Z,29.20
2019-06-01T11:02:40.869Z,29.40
2019-06-01T11:05:10.184Z,29.80
2019-06-01T11:07:39.096Z,30.00
2019-06-01T11:10:12.050Z,30.00
2019-06-01T11:12:43.257Z,30.00
2019-06-01T11:15:15.082Z,29.90
2019-06-01T11:17:43.653Z,30.00
2019-06-01T11:20:12.880Z,30.00
2019-06-01T11:22:41.598Z,29.80
2019-06-01T11:25:11.677Z,29.80
2019-06-01T11:27:40.182Z,29.70
2019-06-01T11:30:10.686Z,29.60
2019-06-01T11:32:41.417Z,29.30
2019-06-01T11:35:11.044Z,28.80
2019-06-01T11:37:40.468Z,28.80
2019-06-01T11:40:10.621Z,29.00
2019-06-01T11:42:43.144Z,29.10
2019-06-01T11:45:16.164Z,29.00
2019-06-01T11:47:46.889Z,29.00
2019-06-01T11:50:19.100Z,29.10
2019-06-01T11:52:50.077Z,29.40
2019-06-01T11:55:18.549Z,30.00
2019-06-01T11:57:48.685Z,30.40
2019-06-01T12:00:17.952Z,30.20
2019-06-01T12:02:47.739Z,30.30
2019-06-01T12:05:17.867Z,30.30
2019-06-01T12:07:47.999Z,30.50
2019-06-01T12:10:16.641Z,30.30
2019-06-01T12:12:46.373Z,30.10
2019-06-01T12:15:18.746Z,30.10
2019-06-01T12:17:47.448Z,30.30
2019-06-01T12:20:16.363Z,30.50
2019-06-01T12:22:45.379Z,30.70
2019-06-01T12:25:14.522Z,31.00
2019-06-01T12:27:43.599Z,31.10
2019-06-01T12:30:14.212Z,31.30
2019-06-01T12:32:44.061Z,31.40
2019-06-01T12:35:15.717Z,31.50
2019-06-01T12:38:00.724Z,31.70
2019-06-01T12:40:15.459Z,31.40
2019-06-01T12:42:45.787Z,31.10
2019-06-01T12:45:16.598Z,31.10
2019-06-01T12:47:49.564Z,31.10
2019-06-01T12:50:15.873Z,30.90
2019-06-01T12:52:44.585Z,30.80
2019-06-01T12:55:13.164Z,30.90
2019-06-01T12:57:43.294Z,30.80
2019-06-01T13:00:12.422Z,30.90
2019-06-01T13:02:44.826Z,31.00
2019-06-01T13:05:12.557Z,30.80
2019-06-01T13:07:57.780Z,30.90
2019-06-01T13:10:14.527Z,31.10
2019-06-01T13:12:43.162Z,31.00
2019-06-01T13:15:13.161Z,31.00
2019-06-01T13:17:41.710Z,31.00
2019-06-01T13:20:10.560Z,31.10
2019-06-01T13:22:39.604Z,31.00
2019-06-01T13:25:08.427Z,31.00
2019-06-01T13:27:40.813Z,31.10
2019-06-01T13:30:08.860Z,31.40
2019-06-01T13:32:38.913Z,31.30
2019-06-01T13:35:07.934Z,31.10
2019-06-01T13:37:36.499Z,31.20
2019-06-01T13:40:08.662Z,31.30
2019-06-01T13:42:37.151Z,31.40
2019-06-01T13:45:08.050Z,31.50
2019-06-01T13:47:38.173Z,31.70
2019-06-01T13:50:09.845Z,31.80
2019-06-01T13:52:38.572Z,31.60
2019-06-01T13:55:08.044Z,31.60
2019-06-01T13:57:39.425Z,31.70
2019-06-01T14:00:08.878Z,31.50
2019-06-01T14:02:37.504Z,31.40
2019-06-01T14:05:07.850Z,31.50
2019-06-01T14:07:36.519Z,31.70
2019-06-01T14:10:06.949Z,32.00
2019-06-01T14:12:35.556Z,32.10
2019-06-01T14:15:08.467Z,32.30
2019-06-01T14:17:38.426Z,32.30
2019-06-01T14:20:07.228Z,32.00
2019-06-01T14:22:35.734Z,31.70
2019-06-01T14:25:14.326Z,31.70
2019-06-01T14:27:40.385Z,32.10
2019-06-01T14:30:09.257Z,32.10
2019-06-01T14:32:38.123Z,32.20
2019-06-01T14:35:10.444Z,32.20
2019-06-01T14:37:38.981Z,32.10
2019-06-01T14:40:10.599Z,32.40
2019-06-01T14:42:39.135Z,32.60
2019-06-01T14:45:09.186Z,32.50
2019-06-01T14:47:37.667Z,32.30
2019-06-01T14:50:09.472Z,32.20
2019-06-01T14:52:38.319Z,32.00
2019-06-01T14:55:09.537Z,31.60
2019-06-01T14:57:38.355Z,31.40
2019-06-01T15:00:08.449Z,31.40
2019-06-01T15:02:38.206Z,31.40
2019-06-01T15:05:08.842Z,31.20
2019-06-01T15:07:40.280Z,31.00
2019-06-01T15:10:09.429Z,30.80
2019-06-01T15:12:38.151Z,30.60
2019-06-01T15:15:10.713Z,30.30
2019-06-01T15:17:39.239Z,30.20
2019-06-01T15:20:09.707Z,29.70
2019-06-01T15:22:39.625Z,29.20
2019-06-01T15:25:10.075Z,28.90
2019-06-01T15:27:39.073Z,28.60
2019-06-01T15:30:09.460Z,28.70
2019-06-01T15:32:38.436Z,28.70
2019-06-01T15:35:08.915Z,28.80
2019-06-01T15:37:43.191Z,28.80
2019-06-01T15:40:13.696Z,28.70
2019-06-01T15:42:42.292Z,28.70
2019-06-01T15:45:12.904Z,28.70
2019-06-01T15:47:41.378Z,28.70
2019-06-01T15:50:11.854Z,28.50
2019-06-01T15:52:40.343Z,28.20
2019-06-01T15:55:14.390Z,28.10
2019-06-01T15:57:42.944Z,28.20
2019-06-01T16:00:13.871Z,28.20
2019-06-01T16:02:42.585Z,28.30
2019-06-01T16:05:12.796Z,28.30
2019-06-01T16:07:42.434Z,28.20
2019-06-01T16:10:12.719Z,28.00
2019-06-01T16:12:41.350Z,27.70
2019-06-01T16:15:11.495Z,27.60
2019-06-01T16:17:40.041Z,27.60
2019-06-01T16:20:12.232Z,27.70
2019-06-01T16:22:41.952Z,27.90
2019-06-01T16:25:10.704Z,27.90
2019-06-01T16:27:39.425Z,28.00
2019-06-01T16:30:09.767Z,28.00
2019-06-01T16:32:39.936Z,28.00
2019-06-01T16:35:09.028Z,28.00
2019-06-01T16:37:37.564Z,27.90
2019-06-01T16:40:10.767Z,27.80
2019-06-01T16:42:39.919Z,27.70
2019-06-01T16:45:11.715Z,27.60
2019-06-01T16:47:40.235Z,27.60
2019-06-01T16:50:13.312Z,27.60
2019-06-01T16:52:46.954Z,27.60
2019-06-01T16:55:15.677Z,27.60
2019-06-01T16:57:45.417Z,27.60
2019-06-01T17:00:16.375Z,27.60
2019-06-01T17:02:46.088Z,27.60
2019-06-01T17:05:15.458Z,27.70
2019-06-01T17:07:45.025Z,27.70
2019-06-01T17:10:25.687Z,27.70
2019-06-01T17:12:45.432Z,27.70
2019-06-01T17:15:16.544Z,27.70
2019-06-01T17:17:45.090Z,27.70
2019-06-01T17:20:37.282Z,27.70
2019-06-01T17:23:26.164Z,27.60
2019-06-01T17:25:40.422Z,27.40
2019-06-01T17:28:09.314Z,27.30
2019-06-01T17:30:37.905Z,27.20
2019-06-01T17:33:08.566Z,27.10
2019-06-01T17:35:39.668Z,27.10
2019-06-01T17:38:09.209Z,27.00
2019-06-01T17:40:43.133Z,27.00
2019-06-01T17:43:12.830Z,26.90
2019-06-01T17:45:43.268Z,26.80
2019-06-01T17:48:25.839Z,26.80
2019-06-01T17:50:43.845Z,26.80
2019-06-01T17:53:16.273Z,26.80
2019-06-01T17:55:44.998Z,26.70
2019-06-01T17:58:13.711Z,26.70
2019-06-01T18:00:42.619Z,26.60
2019-06-01T18:03:12.689Z,26.60
2019-06-01T18:05:41.167Z,26.60
2019-06-01T18:08:12.657Z,26.50
2019-06-01T18:10:53.348Z,26.50
2019-06-01T18:13:13.061Z,26.30
2019-06-01T18:15:41.922Z,26.30
2019-06-01T18:18:10.659Z,26.20
2019-06-01T18:20:39.418Z,26.20
2019-06-01T18:23:11.393Z,26.10
2019-06-01T18:25:40.130Z,26.10
2019-06-01T18:28:15.129Z,26.00
2019-06-01T18:30:39.270Z,25.90
2019-06-01T18:33:09.417Z,25.80
2019-06-01T18:35:37.930Z,25.80
2019-06-01T18:38:07.787Z,25.70
2019-06-01T18:40:36.437Z,25.60
2019-06-01T18:43:10.081Z,25.60
2019-06-01T18:45:39.943Z,25.50
2019-06-01T18:48:10.393Z,25.50
2019-06-01T18:50:39.292Z,25.40
2019-06-01T18:53:09.962Z,25.30
2019-06-01T18:55:38.702Z,25.30
2019-06-01T18:58:08.248Z,25.30
2019-06-01T19:00:39.799Z,25.20
2019-06-01T19:03:08.985Z,25.10
2019-06-01T19:05:38.723Z,25.00
2019-06-01T19:08:09.742Z,25.00
2019-06-01T19:10:38.386Z,24.90
2019-06-01T19:13:08.082Z,24.80
2019-06-01T19:15:36.684Z,24.70
2019-06-01T19:18:06.379Z,24.70
2019-06-01T19:20:36.207Z,24.60
2019-06-01T19:23:08.684Z,24.50
2019-06-01T19:25:37.461Z,24.40
2019-06-01T19:28:21.153Z,24.30
2019-06-01T19:30:51.048Z,24.20
2019-06-01T19:33:21.428Z,24.20
2019-06-01T19:35:53.524Z,24.10
2019-06-01T19:38:24.966Z,24.00
2019-06-01T19:40:54.658Z,23.90
2019-06-01T19:43:23.485Z,23.80
2019-06-01T19:45:52.883Z,23.80
2019-06-01T19:48:21.514Z,23.70
2019-06-01T19:50:51.617Z,23.60
2019-06-01T19:53:20.417Z,23.50
2019-06-01T19:55:48.924Z,23.40
2019-06-01T19:58:19.131Z,23.40
2019-06-01T20:00:47.809Z,23.30
2019-06-01T20:03:20.221Z,23.20
2019-06-01T20:05:46.567Z,23.10
2019-06-01T20:08:16.184Z,23.00
2019-06-01T20:10:44.836Z,22.90
2019-06-01T20:13:15.177Z,22.80
2019-06-01T20:15:44.561Z,22.70
2019-06-01T20:18:17.293Z,22.60
2019-06-01T20:20:45.915Z,22.50
2019-06-01T20:23:15.235Z,22.40
2019-06-01T20:25:44.098Z,22.30
2019-06-01T20:28:19.773Z,22.30
2019-06-01T20:30:48.462Z,22.20
2019-06-01T20:33:18.270Z,22.20
2019-06-01T20:35:48.039Z,22.10
2019-06-01T20:38:16.741Z,22.10
2019-06-01T20:40:45.298Z,22.00
2019-06-01T20:43:14.707Z,22.00
2019-06-01T20:45:46.501Z,21.90
2019-06-01T20:48:16.823Z,21.90
2019-06-01T20:50:45.896Z,21.80
2019-06-01T20:53:14.972Z,21.80
2019-06-01T20:55:43.561Z,21.70
2019-06-01T20:58:13.602Z,21.60
2019-06-01T21:00:42.366Z,21.50
2019-06-01T21:03:10.928Z,21.40
2019-06-01T21:05:39.652Z,20.70
2019-06-01T21:08:08.136Z,21.30
2019-06-01T21:10:36.832Z,21.20
2019-06-01T21:13:07.828Z,21.10
2019-06-01T21:15:35.677Z,21.10
2019-06-01T21:18:04.661Z,21.00
2019-06-01T21:20:36.103Z,20.90
2019-06-01T21:23:04.826Z,20.80
2019-06-01T21:25:37.488Z,20.70
2019-06-01T21:28:05.951Z,20.50
2019-06-01T21:30:35.968Z,20.50
2019-06-01T21:33:05.096Z,20.40
2019-06-01T21:35:33.570Z,20.30
2019-06-01T21:38:02.037Z,20.20
2019-06-01T21:40:30.619Z,20.20
2019-06-01T21:43:12.569Z,20.10
2019-06-01T21:45:29.280Z,20.10
2019-06-01T21:47:57.793Z,20.10
2019-06-01T21:50:26.308Z,20.00
2019-06-01T21:52:55.095Z,19.90
2019-06-01T21:55:24.548Z,19.90
2019-06-01T21:57:53.121Z,19.80
2019-06-01T22:00:33.909Z,19.70
2019-06-01T22:03:02.728Z,19.70
2019-06-01T22:05:31.293Z,19.70
2019-06-01T22:07:59.864Z,19.60
2019-06-01T22:10:28.444Z,19.60
2019-06-01T22:12:58.452Z,19.60
2019-06-01T22:15:28.025Z,19.50
2019-06-01T22:17:56.776Z,19.40
2019-06-01T22:20:25.997Z,19.40
2019-06-01T22:22:57.449Z,19.40
2019-06-01T22:25:25.989Z,19.30
2019-06-01T22:27:54.517Z,19.30
2019-06-01T22:32:11.209Z,19.30
2019-06-01T22:32:53.657Z,19.20
2019-06-01T22:35:22.816Z,19.20
2019-06-01T22:37:54.482Z,19.20
2019-06-01T22:40:22.970Z,19.10
2019-06-01T22:42:54.467Z,19.10
2019-06-01T22:45:23.035Z,19.00
2019-06-01T22:47:51.607Z,19.00
2019-06-01T22:50:22.707Z,19.00
2019-06-01T22:52:52.445Z,18.90
2019-06-01T22:55:22.060Z,18.90
2019-06-01T22:57:52.165Z,18.90
2019-06-01T23:00:23.643Z,18.80
2019-06-01T23:02:50.926Z,18.80
2019-06-01T23:05:23.001Z,18.80
2019-06-01T23:07:52.082Z,18.70
2019-06-01T23:10:31.323Z,18.60
2019-06-01T23:13:01.906Z,18.60
2019-06-01T23:15:31.945Z,18.50
2019-06-01T23:18:03.709Z,18.50
2019-06-01T23:20:33.312Z,18.40
2019-06-01T23:23:01.937Z,18.30
2019-06-01T23:25:33.193Z,18.20
2019-06-01T23:28:03.345Z,18.20
2019-06-01T23:30:32.436Z,18.10
2019-06-01T23:33:02.043Z,18.10
2019-06-01T23:35:32.769Z,18.10
2019-06-01T23:38:02.539Z,18.10
2019-06-01T23:40:31.231Z,18.10
2019-06-01T23:42:59.729Z,18.10
2019-06-01T23:45:31.393Z,18.10
2019-06-01T23:48:02.615Z,18.10
2019-06-01T23:50:32.534Z,18.10
2019-06-01T23:53:13.110Z,18.10
2019-06-01T23:55:34.147Z,18.10
2019-06-01T23:58:04.365Z,18.10
